createdAt,value
2018-11-01T00:00:06.820Z,95961.84
2018-11-01T00:02:35.619Z,95969.24
2018-11-01T00:05:04.436Z,95967.20
2018-11-01T00:07:33.407Z,95968.52
2018-11-01T00:10:02.250Z,95962.80
2018-11-01T00:12:31.081Z,95961.34
2018-11-01T00:14:59.914Z,95951.75
2018-11-01T00:17:28.678Z,95957.02
2018-11-01T00:19:57.442Z,95955.58
2018-11-01T00:22:26.209Z,95955.89
2018-11-01T00:24:55.095Z,95956.20
2018-11-01T00:27:23.934Z,95960.16
2018-11-01T00:29:52.761Z,95960.52
2018-11-01T00:32:21.638Z,95962.28
2018-11-01T00:34:50.479Z,95967.88
2018-11-01T00:37:19.287Z,95973.58
2018-11-01T00:39:48.106Z,95974.81
2018-11-01T00:42:16.923Z,95972.17
2018-11-01T00:44:45.686Z,95972.12
2018-11-01T00:47:14.570Z,95970.63
2018-11-01T00:49:43.725Z,95968.37
2018-11-01T00:52:12.518Z,95969.64
2018-11-01T00:54:41.262Z,95970.64
2018-11-01T00:57:10.271Z,95976.41
2018-11-01T00:59:39.119Z,95975.59
2018-11-01T01:02:08.342Z,95977.05
2018-11-01T01:04:37.183Z,95968.92
2018-11-01T01:07:06.301Z,95968.42
2018-11-01T01:09:35.106Z,95955.66
2018-11-01T01:12:04.242Z,95958.66
2018-11-01T01:14:33.092Z,95965.00
2018-11-01T01:17:01.884Z,95959.41
2018-11-01T01:19:30.700Z,95966.36
2018-11-01T01:21:59.555Z,95967.36
2018-11-01T01:24:28.355Z,95971.07
2018-11-01T01:26:57.194Z,95966.48
2018-11-01T01:29:25.995Z,95969.04
2018-11-01T01:31:55.132Z,95971.49
2018-11-01T01:34:23.966Z,95975.53
2018-11-01T01:36:52.988Z,95972.64
2018-11-01T01:39:21.774Z,95970.14
2018-11-01T01:41:50.728Z,95971.14
2018-11-01T01:44:19.482Z,95965.48
2018-11-01T01:46:50.038Z,95966.25
2018-11-01T01:49:18.810Z,95963.42
2018-11-01T01:51:47.634Z,95966.38
2018-11-01T01:54:16.516Z,95968.83
2018-11-01T01:56:45.318Z,95977.09
2018-11-01T01:59:14.130Z,95987.05
2018-11-01T02:01:42.914Z,95984.36
2018-11-01T02:04:12.052Z,95979.20
2018-11-01T02:06:40.866Z,95972.70
2018-11-01T02:09:13.046Z,95976.26
2018-11-01T02:11:43.377Z,95975.72
2018-11-01T02:14:12.229Z,95982.72
2018-11-01T02:16:41.595Z,95978.41
2018-11-01T02:19:10.530Z,95975.95
2018-11-01T02:21:39.336Z,95979.55
2018-11-01T02:24:08.137Z,95976.41
2018-11-01T02:26:36.940Z,95981.18
2018-11-01T02:29:06.107Z,95979.72
2018-11-01T02:31:34.975Z,95977.14
2018-11-01T02:34:04.135Z,95971.82
2018-11-01T02:36:32.943Z,95969.64
2018-11-01T02:39:01.735Z,95962.92
2018-11-01T02:41:30.527Z,95959.78
2018-11-01T02:43:59.359Z,95947.98
2018-11-01T02:46:28.152Z,95955.13
2018-11-01T02:48:56.983Z,95947.48
2018-11-01T02:51:25.767Z,95953.07
2018-11-01T02:53:54.543Z,95955.70
2018-11-01T02:56:23.298Z,95951.44
2018-11-01T02:58:52.116Z,95951.07
2018-11-01T03:01:20.935Z,95946.11
2018-11-01T03:03:50.338Z,95949.25
2018-11-01T03:06:19.562Z,95946.30
2018-11-01T03:08:48.723Z,95951.13
2018-11-01T03:11:18.568Z,95952.81
2018-11-01T03:13:47.336Z,95952.94
2018-11-01T03:16:16.122Z,95951.25
2018-11-01T03:18:44.996Z,95944.67
2018-11-01T03:21:13.754Z,95940.31
2018-11-01T03:23:42.583Z,95940.21
2018-11-01T03:26:11.339Z,95943.22
2018-11-01T03:28:40.161Z,95948.54
2018-11-01T03:31:08.956Z,95953.58
2018-11-01T03:33:37.771Z,95955.16
2018-11-01T03:36:06.559Z,95959.16
2018-11-01T03:38:35.534Z,95961.34
2018-11-01T03:41:04.737Z,95961.66
2018-11-01T03:43:33.541Z,95961.73
2018-11-01T03:46:03.047Z,95962.42
2018-11-01T03:48:31.853Z,95960.02
2018-11-01T03:51:00.710Z,95959.92
2018-11-01T03:53:29.510Z,95964.55
2018-11-01T03:55:58.795Z,95969.77
2018-11-01T03:58:27.540Z,95967.31
2018-11-01T04:00:56.319Z,95971.58
2018-11-01T04:03:25.128Z,95968.31
2018-11-01T04:05:53.930Z,95966.10
2018-11-01T04:08:22.731Z,95965.28
2018-11-01T04:10:51.502Z,95968.67
2018-11-01T04:13:20.408Z,95964.05
2018-11-01T04:15:49.113Z,95964.36
2018-11-01T04:18:18.146Z,95965.86
2018-11-01T04:20:46.983Z,95958.64
2018-11-01T04:23:16.706Z,95959.72
2018-11-01T04:25:45.720Z,95965.92
2018-11-01T04:28:14.520Z,95968.56
2018-11-01T04:30:43.295Z,95975.27
2018-11-01T04:33:12.081Z,95973.25
2018-11-01T04:35:41.066Z,95973.68
2018-11-01T04:38:09.972Z,95969.05
2018-11-01T04:40:38.841Z,95978.41
2018-11-01T04:43:07.764Z,95971.90
2018-11-01T04:45:36.740Z,95963.72
2018-11-01T04:48:05.911Z,95970.75
2018-11-01T04:50:34.730Z,95966.05
2018-11-01T04:53:03.520Z,95962.98
2018-11-01T04:55:32.311Z,95964.35
2018-11-01T04:58:01.175Z,95967.72
2018-11-01T05:00:30.020Z,95972.06
2018-11-01T05:02:58.789Z,95964.59
2018-11-01T05:05:27.625Z,95965.05
2018-11-01T05:07:56.483Z,95967.31
2018-11-01T05:10:25.322Z,95967.42
2018-11-01T05:12:54.129Z,95968.87
2018-11-01T05:15:23.516Z,95965.48
2018-11-01T05:17:52.801Z,95971.38
2018-11-01T05:20:21.618Z,95976.97
2018-11-01T05:22:50.682Z,95974.20
2018-11-01T05:25:19.686Z,95972.52
2018-11-01T05:27:48.535Z,95972.65
2018-11-01T05:30:17.363Z,95972.89
2018-11-01T05:32:46.210Z,95977.60
2018-11-01T05:35:15.002Z,95978.20
2018-11-01T05:37:43.838Z,95990.83
2018-11-01T05:40:13.155Z,95991.09
2018-11-01T05:42:43.111Z,95994.60
2018-11-01T05:45:12.189Z,95998.59
2018-11-01T05:47:40.971Z,96011.47
2018-11-01T05:50:09.869Z,96001.42
2018-11-01T05:52:39.027Z,96005.83
2018-11-01T05:55:08.757Z,96005.55
2018-11-01T05:57:37.628Z,96010.19
2018-11-01T06:00:11.580Z,96003.36
2018-11-01T06:02:43.928Z,96003.50
2018-11-01T06:05:12.743Z,96007.68
2018-11-01T06:07:47.373Z,96008.67
2018-11-01T06:10:16.295Z,96006.02
2018-11-01T06:12:45.095Z,96003.23
2018-11-01T06:15:13.897Z,96006.69
2018-11-01T06:17:42.669Z,96007.66
2018-11-01T06:20:12.071Z,96015.11
2018-11-01T06:22:40.982Z,96022.74
2018-11-01T06:25:10.837Z,96025.80
2018-11-01T06:27:39.742Z,96027.11
2018-11-01T06:30:11.531Z,96031.07
2018-11-01T06:32:40.533Z,96035.63
2018-11-01T06:35:16.170Z,96034.18
2018-11-01T06:37:45.379Z,96031.38
2018-11-01T06:40:14.219Z,96032.41
2018-11-01T06:42:43.044Z,96026.34
2018-11-01T06:45:11.931Z,96024.38
2018-11-01T06:47:40.963Z,96029.80
2018-11-01T06:50:09.798Z,96033.54
2018-11-01T06:52:38.601Z,96038.42
2018-11-01T06:55:08.994Z,96031.77
2018-11-01T06:57:37.999Z,96027.20
2018-11-01T07:00:11.516Z,96024.81
2018-11-01T07:02:40.687Z,96033.55
2018-11-01T07:05:09.610Z,96040.86
2018-11-01T07:07:39.003Z,96040.56
2018-11-01T07:10:09.842Z,96036.21
2018-11-01T07:12:38.605Z,96028.98
2018-11-01T07:15:08.963Z,96030.11
2018-11-01T07:17:38.170Z,96016.41
2018-11-01T07:20:08.266Z,96021.61
2018-11-01T07:22:38.049Z,96021.40
2018-11-01T07:25:08.156Z,96019.76
2018-11-01T07:27:37.370Z,96028.93
2018-11-01T07:30:12.008Z,96031.38
2018-11-01T07:32:40.932Z,96029.03
2018-11-01T07:35:11.382Z,96015.80
2018-11-01T07:37:41.568Z,96010.48
2018-11-01T07:40:12.910Z,96004.88
2018-11-01T07:42:41.831Z,96004.77
2018-11-01T07:45:11.776Z,96005.67
2018-11-01T07:47:41.943Z,96007.59
2018-11-01T07:50:11.715Z,96000.60
2018-11-01T07:52:40.993Z,96006.38
2018-11-01T07:55:13.014Z,96000.06
2018-11-01T07:57:41.889Z,96007.91
2018-11-01T08:00:14.650Z,96001.89
2018-11-01T08:02:44.191Z,96002.41
2018-11-01T08:05:19.287Z,96008.75
2018-11-01T08:07:48.099Z,96014.36
2018-11-01T08:10:18.166Z,96016.06
2018-11-01T08:12:47.739Z,96011.88
2018-11-01T08:15:17.985Z,96016.73
2018-11-01T08:17:46.756Z,96024.70
2018-11-01T08:20:16.286Z,96031.05
2018-11-01T08:22:45.211Z,96028.80
2018-11-01T08:25:14.547Z,96028.80
2018-11-01T08:27:43.910Z,96028.33
2018-11-01T08:30:14.550Z,96024.67
2018-11-01T08:32:43.382Z,96024.67
2018-11-01T08:35:12.596Z,96020.52
2018-11-01T08:37:42.574Z,96015.53
2018-11-01T08:40:12.216Z,96006.42
2018-11-01T08:42:41.382Z,96010.09
2018-11-01T08:45:11.930Z,96013.50
2018-11-01T08:47:41.243Z,96014.56
2018-11-01T08:50:11.999Z,96014.91
2018-11-01T08:52:42.160Z,96018.91
2018-11-01T08:55:11.385Z,96022.11
2018-11-01T08:57:41.208Z,96025.56
2018-11-01T09:00:10.835Z,96019.00
2018-11-01T09:02:40.443Z,96021.95
2018-11-01T09:05:10.327Z,96017.80
2018-11-01T09:07:39.612Z,96023.55
2018-11-01T09:10:17.003Z,96008.42
2018-11-01T09:12:46.044Z,95996.20
2018-11-01T09:15:16.288Z,96002.91
2018-11-01T09:17:45.048Z,95994.20
2018-11-01T09:20:14.377Z,95995.67
2018-11-01T09:22:43.705Z,95993.33
2018-11-01T09:25:12.511Z,95991.58
2018-11-01T09:27:41.510Z,95994.71
2018-11-01T09:30:12.341Z,95990.60
2018-11-01T09:32:41.704Z,95990.59
2018-11-01T09:35:11.779Z,95990.86
2018-11-01T09:37:41.792Z,95993.95
2018-11-01T09:40:12.445Z,95990.16
2018-11-01T09:42:41.621Z,95981.77
2018-11-01T09:45:10.435Z,95975.20
2018-11-01T09:47:39.694Z,95984.59
2018-11-01T09:50:09.820Z,95987.55
2018-11-01T09:52:38.793Z,95979.76
2018-11-01T09:55:07.794Z,95974.38
2018-11-01T09:57:36.745Z,95973.05
2018-11-01T10:00:13.411Z,95974.09
2018-11-01T10:02:43.385Z,95971.25
2018-11-01T10:05:12.343Z,95969.96
2018-11-01T10:07:41.150Z,95967.31
2018-11-01T10:10:11.718Z,95963.54
2018-11-01T10:12:41.427Z,95963.48
2018-11-01T10:15:10.972Z,95957.17
2018-11-01T10:17:40.567Z,95956.98
2018-11-01T10:20:11.171Z,95957.75
2018-11-01T10:22:40.215Z,95950.77
2018-11-01T10:25:11.246Z,95941.38
2018-11-01T10:27:40.625Z,95939.70
2018-11-01T10:30:13.073Z,95942.60
2018-11-01T10:32:42.246Z,95939.45
2018-11-01T10:35:11.034Z,95938.30
2018-11-01T10:37:40.478Z,95934.39
2018-11-01T10:40:12.559Z,95927.58
2018-11-01T10:42:41.379Z,95928.11
2018-11-01T10:45:10.684Z,95930.39
2018-11-01T10:47:40.015Z,95927.03
2018-11-01T10:50:12.438Z,95924.25
2018-11-01T10:52:41.352Z,95929.41
2018-11-01T10:55:11.299Z,95934.68
2018-11-01T10:57:40.122Z,95933.95
2018-11-01T11:00:17.286Z,95936.54
2018-11-01T11:02:48.224Z,95928.42
2018-11-01T11:05:18.036Z,95920.94
2018-11-01T11:07:46.910Z,95920.87
2018-11-01T11:10:16.013Z,95927.59
2018-11-01T11:12:44.790Z,95924.02
2018-11-01T11:15:13.594Z,95924.77
2018-11-01T11:17:42.398Z,95918.02
2018-11-01T11:20:12.182Z,95916.22
2018-11-01T11:22:41.212Z,95910.13
2018-11-01T11:25:11.410Z,95903.14
2018-11-01T11:27:40.553Z,95903.92
2018-11-01T11:30:10.441Z,95899.42
2018-11-01T11:32:39.403Z,95899.95
2018-11-01T11:35:08.832Z,95897.27
2018-11-01T11:37:37.724Z,95890.84
2018-11-01T11:40:07.756Z,95896.25
2018-11-01T11:42:36.595Z,95893.69
2018-11-01T11:45:06.199Z,95895.48
2018-11-01T11:47:35.036Z,95890.44
2018-11-01T11:50:04.213Z,95886.48
2018-11-01T11:52:33.034Z,95881.78
2018-11-01T11:55:02.191Z,95883.89
2018-11-01T11:57:31.131Z,95884.45
2018-11-01T11:59:59.896Z,95877.14
2018-11-01T12:02:28.724Z,95883.28
2018-11-01T12:04:57.647Z,95875.32
2018-11-01T12:07:26.481Z,95872.17
2018-11-01T12:09:55.343Z,95869.21
2018-11-01T12:12:24.211Z,95869.06
2018-11-01T12:14:52.977Z,95867.16
2018-11-01T12:17:21.808Z,95870.20
2018-11-01T12:19:50.641Z,95863.66
2018-11-01T12:22:19.472Z,95864.05
2018-11-01T12:24:48.431Z,95861.77
2018-11-01T12:27:17.266Z,95859.09
2018-11-01T12:29:46.042Z,95853.81
2018-11-01T12:32:14.956Z,95853.48
2018-11-01T12:34:43.706Z,95850.76
2018-11-01T12:37:12.554Z,95857.94
2018-11-01T12:39:41.386Z,95861.41
2018-11-01T12:42:10.334Z,95852.50
2018-11-01T12:44:39.227Z,95853.48
2018-11-01T12:47:08.075Z,95852.66
2018-11-01T12:49:36.946Z,95847.73
2018-11-01T12:52:06.019Z,95851.22
2018-11-01T12:54:34.895Z,95846.87
2018-11-01T12:57:03.745Z,95845.95
2018-11-01T12:59:32.638Z,95849.71
2018-11-01T13:02:01.569Z,95851.91
2018-11-01T13:04:30.378Z,95851.95
2018-11-01T13:06:59.192Z,95852.59
2018-11-01T13:09:28.342Z,95853.36
2018-11-01T13:11:57.235Z,95856.85
2018-11-01T13:14:26.027Z,95860.09
2018-11-01T13:16:55.093Z,95865.54
2018-11-01T13:19:23.919Z,95863.17
2018-11-01T13:21:52.722Z,95856.91
2018-11-01T13:24:21.527Z,95855.95
2018-11-01T13:26:50.320Z,95861.87
2018-11-01T13:29:19.254Z,95856.19
2018-11-01T13:31:48.143Z,95853.19
2018-11-01T13:34:16.961Z,95857.17
2018-11-01T13:36:45.747Z,95859.05
2018-11-01T13:39:14.569Z,95859.86
2018-11-01T13:41:43.517Z,95861.18
2018-11-01T13:44:12.438Z,95870.23
2018-11-01T13:46:41.254Z,95872.52
2018-11-01T13:49:10.157Z,95864.73
2018-11-01T13:51:38.978Z,95868.10
2018-11-01T13:54:07.775Z,95869.13
2018-11-01T13:56:36.635Z,95867.05
2018-11-01T13:59:06.328Z,95863.72
2018-11-01T14:01:35.195Z,95861.81
2018-11-01T14:04:04.245Z,95865.81
2018-11-01T14:06:33.094Z,95862.52
2018-11-01T14:09:01.941Z,95865.11
2018-11-01T14:11:30.746Z,95867.25
2018-11-01T14:13:59.874Z,95866.64
2018-11-01T14:16:28.620Z,95861.31
2018-11-01T14:18:57.458Z,95863.16
2018-11-01T14:21:26.221Z,95859.11
2018-11-01T14:23:55.030Z,95854.56
2018-11-01T14:26:23.871Z,95854.22
2018-11-01T14:28:52.672Z,95852.75
2018-11-01T14:31:21.512Z,95848.64
2018-11-01T14:33:50.267Z,95846.17
2018-11-01T14:36:19.107Z,95845.80
2018-11-01T14:38:47.915Z,95844.59
2018-11-01T14:41:16.711Z,95845.34
2018-11-01T14:43:45.614Z,95848.56
2018-11-01T14:46:14.406Z,95842.88
2018-11-01T14:48:43.277Z,95848.50
2018-11-01T14:51:12.173Z,95841.20
2018-11-01T14:53:41.093Z,95840.16
2018-11-01T14:56:11.395Z,95837.49
2018-11-01T14:58:40.116Z,95833.20
2018-11-01T15:01:08.420Z,95829.50
2018-11-01T15:03:37.203Z,95828.11
2018-11-01T15:06:06.451Z,95828.92
2018-11-01T15:08:35.275Z,95831.03
2018-11-01T15:11:04.026Z,95830.17
2018-11-01T15:13:32.933Z,95835.44
2018-11-01T15:16:01.867Z,95828.72
2018-11-01T15:18:30.763Z,95835.12
2018-11-01T15:20:59.622Z,95840.91
2018-11-01T15:23:28.454Z,95844.38
2018-11-01T15:25:57.328Z,95850.30
2018-11-01T15:28:26.256Z,95843.11
2018-11-01T15:30:55.107Z,95843.11
2018-11-01T15:33:23.996Z,95855.42
2018-11-01T15:35:53.028Z,95854.52
2018-11-01T15:38:22.244Z,95859.66
2018-11-01T15:40:56.229Z,95853.77
2018-11-01T15:43:25.035Z,95854.32
2018-11-01T15:45:53.960Z,95862.16
2018-11-01T15:48:22.997Z,95868.24
2018-11-01T15:50:51.908Z,95868.83
2018-11-01T15:53:20.719Z,95879.39
2018-11-01T15:55:49.554Z,95878.16
2018-11-01T15:58:18.382Z,95884.56
2018-11-01T16:00:47.322Z,95882.67
2018-11-01T16:03:16.194Z,95878.16
2018-11-01T16:05:45.187Z,95881.89
2018-11-01T16:08:13.994Z,95886.94
2018-11-01T16:10:42.806Z,95881.83
2018-11-01T16:13:11.611Z,95880.41
2018-11-01T16:15:40.398Z,95880.63
2018-11-01T16:18:09.152Z,95889.14
2018-11-01T16:20:37.929Z,95888.33
2018-11-01T16:23:06.803Z,95886.67
2018-11-01T16:25:35.620Z,95890.96
2018-11-01T16:28:04.451Z,95891.94
2018-11-01T16:30:33.320Z,95889.92
2018-11-01T16:33:02.086Z,95897.49
2018-11-01T16:35:30.868Z,95894.66
2018-11-01T16:38:00.016Z,95896.29
2018-11-01T16:40:28.822Z,95897.48
2018-11-01T16:42:57.722Z,95901.77
2018-11-01T16:45:26.616Z,95899.08
2018-11-01T16:47:55.477Z,95891.25
2018-11-01T16:50:24.259Z,95880.53
2018-11-01T16:52:53.073Z,95889.30
2018-11-01T16:55:22.074Z,95874.36
2018-11-01T16:57:52.329Z,95873.03
2018-11-01T17:00:21.216Z,95862.54
2018-11-01T17:02:50.199Z,95846.80
2018-11-01T17:05:19.279Z,95838.41
2018-11-01T17:07:48.078Z,95832.34
2018-11-01T17:10:16.993Z,95831.89
2018-11-01T17:12:45.786Z,95819.45
2018-11-01T17:15:15.747Z,95819.02
2018-11-01T17:17:45.545Z,95825.86
2018-11-01T17:20:14.386Z,95819.14
2018-11-01T17:22:43.458Z,95811.45
2018-11-01T17:25:12.568Z,95818.39
2018-11-01T17:27:41.484Z,95831.63
2018-11-01T17:30:12.086Z,95839.77
2018-11-01T17:32:45.957Z,95848.67
2018-11-01T17:35:15.215Z,95864.20
2018-11-01T17:37:44.002Z,95872.84
2018-11-01T17:40:13.899Z,95877.13
2018-11-01T17:42:43.535Z,95880.95
2018-11-01T17:45:12.367Z,95862.56
2018-11-01T17:47:41.887Z,95848.74
2018-11-01T17:50:12.492Z,95859.03
2018-11-01T17:52:41.834Z,95864.80
2018-11-01T17:55:10.632Z,95876.87
2018-11-01T17:57:40.160Z,95886.65
2018-11-01T18:00:15.009Z,95888.76
2018-11-01T18:02:44.314Z,95894.55
2018-11-01T18:05:13.688Z,95896.62
2018-11-01T18:07:42.666Z,95894.77
2018-11-01T18:10:12.559Z,95887.19
2018-11-01T18:12:41.778Z,95879.95
2018-11-01T18:15:10.758Z,95877.73
2018-11-01T18:17:39.532Z,95886.45
2018-11-01T18:20:10.194Z,95888.25
2018-11-01T18:22:39.480Z,95885.14
2018-11-01T18:25:09.890Z,95880.86
2018-11-01T18:27:38.670Z,95889.30
2018-11-01T18:30:12.430Z,95896.46
2018-11-01T18:32:41.809Z,95895.13
2018-11-01T18:35:11.393Z,95888.83
2018-11-01T18:37:40.958Z,95898.13
2018-11-01T18:40:13.470Z,95902.81
2018-11-01T18:42:42.439Z,95910.70
2018-11-01T18:45:12.795Z,95907.45
2018-11-01T18:47:42.421Z,95905.91
2018-11-01T18:50:13.095Z,95903.77
2018-11-01T18:52:42.622Z,95906.59
2018-11-01T18:55:12.577Z,95910.36
2018-11-01T18:57:41.548Z,95919.41
2018-11-01T19:00:14.684Z,95925.49
2018-11-01T19:02:43.738Z,95921.50
2018-11-01T19:05:12.856Z,95924.59
2018-11-01T19:07:42.316Z,95920.31
2018-11-01T19:10:12.098Z,95918.69
2018-11-01T19:12:41.054Z,95917.52
2018-11-01T19:15:11.534Z,95917.81
2018-11-01T19:17:41.106Z,95920.00
2018-11-01T19:20:11.138Z,95919.87
2018-11-01T19:22:40.125Z,95919.87
2018-11-01T19:25:09.679Z,95911.30
2018-11-01T19:27:39.467Z,95915.06
2018-11-01T19:30:11.451Z,95915.16
2018-11-01T19:32:40.491Z,95912.33
2018-11-01T19:35:10.966Z,95914.34
2018-11-01T19:37:39.815Z,95921.13
2018-11-01T19:40:11.469Z,95923.14
2018-11-01T19:42:40.326Z,95921.27
2018-11-01T19:45:09.313Z,95920.63
2018-11-01T19:47:38.451Z,95928.00
2018-11-01T19:50:08.898Z,95932.06
2018-11-01T19:52:37.652Z,95931.25
2018-11-01T19:55:06.678Z,95931.47
2018-11-01T19:57:35.689Z,95931.63
2018-11-01T20:00:10.096Z,95942.39
2018-11-01T20:02:38.979Z,95934.03
2018-11-01T20:05:08.998Z,95926.81
2018-11-01T20:07:37.890Z,95933.28
2018-11-01T20:10:08.300Z,95937.13
2018-11-01T20:12:37.303Z,95932.92
2018-11-01T20:15:06.778Z,95925.77
2018-11-01T20:17:35.843Z,95931.22
2018-11-01T20:20:06.233Z,95925.83
2018-11-01T20:22:35.007Z,95935.80
2018-11-01T20:25:03.885Z,95929.97
2018-11-01T20:27:32.704Z,95930.63
2018-11-01T20:30:01.712Z,95926.30
2018-11-01T20:32:30.730Z,95933.16
2018-11-01T20:34:59.519Z,95931.61
2018-11-01T20:37:28.337Z,95930.94
2018-11-01T20:39:57.131Z,95925.84
2018-11-01T20:42:25.945Z,95928.80
2018-11-01T20:44:54.779Z,95919.28
2018-11-01T20:47:23.583Z,95918.78
2018-11-01T20:49:52.337Z,95912.66
2018-11-01T20:52:21.206Z,95920.46
2018-11-01T20:54:49.990Z,95921.76
2018-11-01T20:57:19.182Z,95929.72
2018-11-01T20:59:48.069Z,95920.71
2018-11-01T21:02:16.888Z,95928.45
2018-11-01T21:04:46.416Z,95922.31
2018-11-01T21:07:15.370Z,95920.08
2018-11-01T21:09:44.161Z,95918.75
2018-11-01T21:12:13.294Z,95914.42
2018-11-01T21:14:42.178Z,95919.31
2018-11-01T21:17:11.001Z,95921.22
2018-11-01T21:19:40.054Z,95923.63
2018-11-01T21:22:12.119Z,95924.41
2018-11-01T21:24:40.906Z,95926.04
2018-11-01T21:27:10.205Z,95927.88
2018-11-01T21:29:39.056Z,95921.30
2018-11-01T21:32:08.575Z,95925.42
2018-11-01T21:34:37.587Z,95930.33
2018-11-01T21:37:06.842Z,95927.64
2018-11-01T21:39:35.901Z,95928.87
2018-11-01T21:42:05.284Z,95931.98
2018-11-01T21:44:34.466Z,95939.77
2018-11-01T21:47:03.331Z,95940.08
2018-11-01T21:49:32.343Z,95932.95
2018-11-01T21:52:01.114Z,95931.22
2018-11-01T21:54:30.346Z,95928.36
2018-11-01T21:56:59.125Z,95927.35
2018-11-01T21:59:27.926Z,95928.98
2018-11-01T22:01:56.754Z,95933.16
2018-11-01T22:04:25.531Z,95936.97
2018-11-01T22:06:54.594Z,95938.91
2018-11-01T22:09:23.543Z,95946.05
2018-11-01T22:11:52.588Z,95938.09
2018-11-01T22:14:21.371Z,95944.25
2018-11-01T22:16:50.209Z,95939.22
2018-11-01T22:19:19.195Z,95937.22
2018-11-01T22:21:48.045Z,95939.00
2018-11-01T22:24:16.798Z,95939.30
2018-11-01T22:26:45.547Z,95941.64
2018-11-01T22:29:14.348Z,95938.69
2018-11-01T22:31:43.264Z,95943.17
2018-11-01T22:34:12.034Z,95948.47
2018-11-01T22:36:40.818Z,95942.56
2018-11-01T22:39:10.431Z,95944.19
2018-11-01T22:41:39.411Z,95937.16
2018-11-01T22:44:08.337Z,95946.53
2018-11-01T22:46:37.075Z,95947.00
2018-11-01T22:49:06.260Z,95949.55
2018-11-01T22:51:35.238Z,95945.20
2018-11-01T22:54:04.265Z,95942.12
2018-11-01T22:56:33.064Z,95934.30
2018-11-01T22:59:01.922Z,95943.27
2018-11-01T23:01:30.960Z,95944.40
2018-11-01T23:03:59.742Z,95943.81
2018-11-01T23:06:28.540Z,95943.07
2018-11-01T23:08:57.342Z,95943.41
2018-11-01T23:11:26.167Z,95940.42
2018-11-01T23:13:54.956Z,95933.53
2018-11-01T23:16:23.715Z,95924.36
2018-11-01T23:18:52.493Z,95929.25
2018-11-01T23:21:21.293Z,95929.86
2018-11-01T23:23:50.054Z,95931.09
2018-11-01T23:26:18.829Z,95935.06
2018-11-01T23:28:47.754Z,95927.97
2018-11-01T23:31:16.578Z,95931.94
2018-11-01T23:33:45.364Z,95926.57
2018-11-01T23:36:13.416Z,95926.67
2018-11-01T23:38:47.333Z,95928.38
2018-11-01T23:41:21.381Z,95927.56
2018-11-01T23:43:55.374Z,95930.20
2018-11-01T23:46:29.426Z,95933.36
2018-11-01T23:49:16.722Z,95935.30
2018-11-01T23:51:49.634Z,95937.34
2018-11-01T23:54:18.414Z,95939.88
2018-11-01T23:56:47.236Z,95935.50
2018-11-01T23:59:16.029Z,95939.34
